Time;durP1;ratioP1;P1;durP2;ratioP2;P2;SDS_P1;SDS_P2;PMS_P1;PMS_P2;Temp;Humidity;BMP_temperature;BMP_pressure;BME280_temperature;BME280_humidity;BME280_pressure;Samples;Min_cycle;Max_cycle;Signal;HPM_P1;HPM_P2
2022/12/28 00:01:59;;;;;;;;;;;6.00;99.90;;;;;;5095921;28;20267;-39
2022/12/28 00:04:24;;;;;;;;;;;6.00;99.90;;;;;;5115422;28;19919;-40
2022/12/28 00:06:50;;;;;;;;;;;5.90;99.90;;;;;;5095224;28;19919;-39
2022/12/28 00:09:15;;;;;;;;;;;5.90;99.90;;;;;;5106061;28;19966;-40
2022/12/28 00:11:41;;;;;;;;;;;5.90;99.90;;;;;;5115663;28;19912;-41
2022/12/28 00:14:07;;;;;;;;;;;5.90;99.90;;;;;;5097286;28;19938;-39
2022/12/28 00:16:33;;;;;;;;;;;5.90;99.90;;;;;;5095558;28;19919;-39
2022/12/28 00:19:00;;;;;;;;;;;5.90;99.90;;;;;;5096070;28;19912;-39
2022/12/28 00:21:26;;;;;;;;;;;5.90;99.90;;;;;;5094521;28;19919;-40
2022/12/28 00:23:52;;;;;;;;;;;5.90;99.90;;;;;;5095054;28;19916;-40
2022/12/28 00:26:18;;;;;;;;;;;5.90;99.90;;;;;;5095363;28;19912;-39
2022/12/28 00:28:44;;;;;;;;;;;5.90;99.90;;;;;;5098084;28;19916;-40
2022/12/28 00:31:10;;;;;;;;;;;5.90;99.90;;;;;;5113861;28;19973;-39
2022/12/28 00:33:35;;;;;;;;;;;5.90;99.90;;;;;;5114055;28;19920;-39
2022/12/28 00:36:01;;;;;;;;;;;5.90;99.90;;;;;;5112057;28;19912;-39
2022/12/28 00:38:27;;;;;;;;;;;5.90;99.90;;;;;;5113715;28;20298;-40
2022/12/28 00:40:53;;;;;;;;;;;5.90;99.90;;;;;;5105577;28;19947;-39
2022/12/28 00:43:18;;;;;;;;;;;5.90;99.90;;;;;;5094332;28;20345;-40
2022/12/28 00:45:44;;;;;;;;;;;5.90;99.90;;;;;;5100824;28;19918;-39
2022/12/28 00:48:10;;;;;;;;;;;5.90;99.90;;;;;;5115505;28;19939;-40
2022/12/28 00:50:36;;;;;;;;;;;5.90;99.90;;;;;;5112358;28;19982;-40
2022/12/28 00:53:01;;;;;;;;;;;5.90;99.90;;;;;;5097569;28;20050;-40
2022/12/28 00:55:27;;;;;;;;;;;5.90;99.90;;;;;;5097282;28;19915;-39
2022/12/28 00:57:52;;;;;;;;;;;5.90;99.90;;;;;;5115090;28;19908;-40
2022/12/28 01:00:17;;;;;;;;;;;5.90;99.90;;;;;;5095971;28;20389;-39
2022/12/28 01:02:43;;;;;;;;;;;5.90;99.90;;;;;;5093865;28;19916;-40
2022/12/28 01:05:08;;;;;;;;;;;5.90;99.90;;;;;;5098652;28;19912;-38
2022/12/28 01:07:34;;;;;;;;;;;5.90;99.90;;;;;;5095699;28;20332;-40
2022/12/28 01:09:59;;;;;;;;;;;5.90;99.90;;;;;;5093849;28;19916;-39
2022/12/28 01:12:25;;;;;;;;;;;5.90;99.90;;;;;;5094557;28;19994;-40
2022/12/28 01:14:50;;;;;;;;;;;5.90;99.90;;;;;;5094521;28;20367;-40
2022/12/28 01:17:16;;;;;;;;;;;5.90;99.90;;;;;;5093641;28;19919;-41
2022/12/28 01:19:41;;;;;;;;;;;5.90;99.90;;;;;;5094281;28;19920;-40
2022/12/28 01:22:09;;;;;;;;;;;5.90;99.90;;;;;;5099953;28;19954;-39
2022/12/28 01:24:34;;;;;;;;;;;5.90;99.90;;;;;;5113504;28;19981;-42
2022/12/28 01:27:00;;;;;;;;;;;5.90;99.90;;;;;;5096614;28;20362;-41
2022/12/28 01:29:25;;;;;;;;;;;5.90;99.90;;;;;;5093985;28;19916;-39
2022/12/28 01:31:51;;;;;;;;;;;5.90;99.90;;;;;;5113151;28;19943;-40
2022/12/28 01:34:16;;;;;;;;;;;5.90;99.90;;;;;;5108623;28;19913;-40
2022/12/28 01:36:41;;;;;;;;;;;5.90;99.90;;;;;;5093885;28;20290;-39
2022/12/28 01:39:07;;;;;;;;;;;5.90;99.90;;;;;;5093625;28;19916;-41
2022/12/28 01:41:35;;;;;;;;;;;6.00;99.90;;;;;;5093841;28;20458;-40
2022/12/28 01:44:00;;;;;;;;;;;6.00;99.90;;;;;;5093809;28;19951;-40
2022/12/28 01:46:44;;;;;;;;;;;6.00;99.90;;;;;;5092846;28;19951;-40
2022/12/28 01:49:12;;;;;;;;;;;6.00;99.90;;;;;;5093613;28;19923;-39
2022/12/28 01:51:51;;;;;;;;;;;6.00;99.90;;;;;;5092807;28;19927;-39
2022/12/28 01:54:17;;;;;;;;;;;6.00;99.90;;;;;;5094658;28;19955;-41
2022/12/28 01:56:43;;;;;;;;;;;6.00;99.90;;;;;;5111725;28;19908;-41
2022/12/28 01:59:09;;;;;;;;;;;6.00;99.90;;;;;;5094504;28;19919;-40
2022/12/28 02:01:35;;;;;;;;;;;6.00;99.90;;;;;;5098312;28;19912;-39
2022/12/28 02:04:01;;;;;;;;;;;6.00;99.90;;;;;;5110090;28;19983;-40
2022/12/28 02:06:26;;;;;;;;;;;6.00;99.90;;;;;;5096872;28;19920;-41
2022/12/28 02:08:58;;;;;;;;;;;6.10;99.90;;;;;;5093212;28;20450;-40
2022/12/28 02:11:24;;;;;;;;;;;6.10;99.90;;;;;;5093282;28;19916;-40
2022/12/28 02:13:51;;;;;;;;;;;6.10;99.90;;;;;;5096249;28;19923;-40
2022/12/28 02:16:17;;;;;;;;;;;6.10;99.90;;;;;;5093456;28;19920;-40
2022/12/28 02:18:43;;;;;;;;;;;6.10;99.90;;;;;;5093225;28;19908;-41
2022/12/28 02:21:09;;;;;;;;;;;6.20;99.90;;;;;;5100897;28;19911;-39
2022/12/28 02:23:34;;;;;;;;;;;6.20;99.90;;;;;;5101148;28;19938;-40
2022/12/28 02:26:18;;;;;;;;;;;6.20;99.90;;;;;;5093072;28;19912;-41
2022/12/28 02:29:01;;;;;;;;;;;6.30;99.90;;;;;;5093286;28;19912;-40
2022/12/28 02:31:31;;;;;;;;;;;6.20;99.90;;;;;;5092654;28;20011;-41
2022/12/28 02:34:02;;;;;;;;;;;6.30;99.90;;;;;;5098526;28;19920;-40
2022/12/28 02:36:32;;;;;;;;;;;6.30;99.90;;;;;;5092789;28;19916;-42
2022/12/28 02:39:07;;;;;;;;;;;6.30;99.90;;;;;;5096775;28;19919;-40
2022/12/28 02:41:33;;;;;;;;;;;6.30;99.90;;;;;;5091902;28;19942;-40
2022/12/28 02:43:59;;;;;;;;;;;6.30;99.90;;;;;;5092759;28;19919;-41
2022/12/28 02:52:05;;;;;;;;;;;6.30;99.90;;;;;;5104848;28;19965;-40
2022/12/28 02:57:55;;;;;;;;;;;6.30;99.90;;;;;;5093884;28;20004;-40
2022/12/28 03:00:22;;;;;;;;;;;6.30;99.90;;;;;;5092707;28;19931;-39
2022/12/28 03:03:07;;;;;;;;;;;6.30;99.90;;;;;;5091799;28;19912;-41
2022/12/28 03:08:30;;;;;;;;;;;6.30;99.90;;;;;;5113116;28;19918;-39
2022/12/28 03:11:13;;;;;;;;;;;6.30;99.90;;;;;;5111996;28;19920;-41
2022/12/28 03:13:49;;;;;;;;;;;6.30;99.90;;;;;;5112578;28;20013;-39
2022/12/28 03:16:24;;;;;;;;;;;6.40;99.90;;;;;;5104321;28;19992;-39
2022/12/28 03:32:42;;;;;;;;;;;6.50;99.90;;;;;;5099549;28;20011;-39
2022/12/28 03:35:08;;;;;;;;;;;6.50;99.90;;;;;;5080252;28;19916;-40
2022/12/28 03:37:38;;;;;;;;;;;6.60;99.90;;;;;;5072329;28;19956;-39
2022/12/28 03:40:04;;;;;;;;;;;6.60;99.90;;;;;;5072268;28;19908;-40
2022/12/28 03:45:16;;;;;;;;;;;6.60;99.90;;;;;;5071689;28;19920;-40
2022/12/28 03:47:43;;;;;;;;;;;6.70;99.90;;;;;;5071934;28;20346;-39
2022/12/28 03:50:08;;;;;;;;;;;6.60;99.90;;;;;;5071996;28;19955;-40
2022/12/28 03:52:34;;;;;;;;;;;6.70;99.90;;;;;;5077733;28;20367;-39
2022/12/28 03:54:59;;;;;;;;;;;6.70;99.90;;;;;;5073014;28;20028;-40
2022/12/28 03:57:25;;;;;;;;;;;6.70;99.90;;;;;;5071909;28;19920;-40
2022/12/28 03:59:50;;;;;;;;;;;6.70;99.90;;;;;;5071204;28;20394;-38
2022/12/28 04:02:16;;;;;;;;;;;6.70;99.90;;;;;;5089922;28;19912;-39
2022/12/28 04:04:41;;;;;;;;;;;6.80;99.90;;;;;;5083928;28;19912;-39
2022/12/28 04:07:07;;;;;;;;;;;6.80;99.90;;;;;;5077753;28;19919;-40
2022/12/28 04:09:33;;;;;;;;;;;6.80;99.90;;;;;;5088484;28;19964;-40
2022/12/28 04:11:58;;;;;;;;;;;6.80;99.90;;;;;;5075208;28;19912;-39
2022/12/28 04:14:23;;;;;;;;;;;6.90;99.90;;;;;;5087619;28;19919;-41
2022/12/28 04:16:49;;;;;;;;;;;6.90;99.90;;;;;;5078346;28;19951;-38
2022/12/28 04:19:14;;;;;;;;;;;6.90;99.90;;;;;;5075291;28;19974;-39
2022/12/28 04:21:40;;;;;;;;;;;6.90;99.90;;;;;;5074312;28;19912;-39
2022/12/28 04:24:05;;;;;;;;;;;6.90;99.90;;;;;;5075223;28;19909;-39
2022/12/28 04:26:31;;;;;;;;;;;6.90;99.90;;;;;;5074313;28;19974;-40
2022/12/28 04:29:00;;;;;;;;;;;7.00;99.90;;;;;;5075042;28;19912;-39
2022/12/28 04:31:27;;;;;;;;;;;7.00;99.90;;;;;;5087765;27;20398;-39
2022/12/28 04:33:52;;;;;;;;;;;7.00;99.90;;;;;;5077982;28;19974;-38
2022/12/28 04:36:18;;;;;;;;;;;7.00;99.90;;;;;;5074950;28;20375;-40
2022/12/28 04:38:43;;;;;;;;;;;7.00;99.90;;;;;;5075756;28;19999;-40
2022/12/28 04:41:09;;;;;;;;;;;7.00;99.90;;;;;;5074149;28;20301;-42
2022/12/28 04:43:35;;;;;;;;;;;7.00;99.90;;;;;;5074849;28;19966;-40
2022/12/28 04:46:01;;;;;;;;;;;7.00;99.90;;;;;;5074854;28;20377;-40
2022/12/28 04:48:27;;;;;;;;;;;7.10;99.90;;;;;;5080547;28;19916;-40
2022/12/28 04:50:53;;;;;;;;;;;7.10;99.90;;;;;;5075685;28;19926;-39
2022/12/28 04:53:19;;;;;;;;;;;7.10;99.90;;;;;;5094519;28;19951;-39
2022/12/28 04:55:44;;;;;;;;;;;7.10;99.90;;;;;;5090099;28;19912;-41
2022/12/28 04:58:10;;;;;;;;;;;7.10;99.90;;;;;;5074732;28;19908;-39
2022/12/28 05:00:35;;;;;;;;;;;7.20;99.90;;;;;;5074356;28;20058;-39
2022/12/28 05:03:01;;;;;;;;;;;7.20;99.90;;;;;;5073666;28;19952;-39
2022/12/28 05:05:27;;;;;;;;;;;7.10;99.90;;;;;;5087236;28;20302;-39
2022/12/28 05:07:54;;;;;;;;;;;7.20;99.90;;;;;;5077472;28;19912;-41
2022/12/28 05:10:19;;;;;;;;;;;7.20;99.90;;;;;;5073550;28;19917;-39
2022/12/28 05:12:45;;;;;;;;;;;7.20;99.90;;;;;;5073398;28;19931;-40
2022/12/28 05:15:11;;;;;;;;;;;7.20;99.90;;;;;;5074182;28;20586;-38
2022/12/28 05:17:36;;;;;;;;;;;7.20;99.90;;;;;;5073328;28;19912;-41
2022/12/28 05:20:02;;;;;;;;;;;7.30;99.90;;;;;;5074178;28;19916;-41
2022/12/28 05:22:28;;;;;;;;;;;7.30;99.90;;;;;;5074056;28;19917;-39
2022/12/28 05:24:53;;;;;;;;;;;7.30;99.90;;;;;;5073300;28;20206;-40
2022/12/28 05:27:19;;;;;;;;;;;7.40;99.90;;;;;;5073982;28;20355;-39
2022/12/28 05:29:44;;;;;;;;;;;7.40;99.90;;;;;;5073003;28;19918;-39
2022/12/28 05:32:10;;;;;;;;;;;7.40;99.90;;;;;;5073575;28;19939;-41
2022/12/28 05:34:35;;;;;;;;;;;7.40;99.90;;;;;;5078921;28;20424;-39
2022/12/28 05:37:01;;;;;;;;;;;7.50;99.90;;;;;;5084220;28;19919;-42
2022/12/28 05:39:26;;;;;;;;;;;7.50;99.90;;;;;;5073783;28;19912;-40
2022/12/28 05:41:52;;;;;;;;;;;7.50;99.90;;;;;;5073705;28;19920;-40
2022/12/28 05:44:17;;;;;;;;;;;7.50;99.90;;;;;;5072987;28;19913;-40
2022/12/28 05:46:43;;;;;;;;;;;7.50;99.90;;;;;;5073520;28;19915;-42
2022/12/28 05:49:08;;;;;;;;;;;7.50;99.90;;;;;;5073557;28;20295;-42
2022/12/28 05:51:34;;;;;;;;;;;7.60;99.90;;;;;;5078915;28;19908;-39
2022/12/28 05:54:00;;;;;;;;;;;7.60;99.90;;;;;;5093834;28;19912;-41
2022/12/28 05:56:26;;;;;;;;;;;7.60;99.90;;;;;;5091579;28;19908;-43
2022/12/28 05:58:53;;;;;;;;;;;7.50;99.90;;;;;;5092810;28;19924;-41
2022/12/28 06:01:20;;;;;;;;;;;7.60;99.90;;;;;;5088389;28;19916;-39
2022/12/28 06:03:46;;;;;;;;;;;7.60;99.90;;;;;;5090493;28;19970;-40
2022/12/28 06:06:13;;;;;;;;;;;7.60;99.90;;;;;;5089579;28;20409;-39
2022/12/28 06:08:39;;;;;;;;;;;7.70;99.90;;;;;;5088861;28;19966;-40
2022/12/28 06:11:05;;;;;;;;;;;7.60;99.90;;;;;;5090627;28;19963;-41
2022/12/28 06:13:31;;;;;;;;;;;7.70;99.90;;;;;;5088472;28;19916;-44
2022/12/28 06:15:57;;;;;;;;;;;7.70;99.90;;;;;;5090926;28;19915;-40
2022/12/28 06:18:22;;;;;;;;;;;7.70;99.90;;;;;;5090428;28;20322;-41
2022/12/28 06:20:48;;;;;;;;;;;7.80;99.90;;;;;;5089802;28;19919;-40
2022/12/28 06:23:14;;;;;;;;;;;7.80;99.90;;;;;;5091721;28;19927;-39
2022/12/28 06:25:39;;;;;;;;;;;7.80;99.90;;;;;;5090430;28;19908;-40
2022/12/28 06:28:05;;;;;;;;;;;7.80;99.90;;;;;;5090890;28;19912;-40
2022/12/28 06:30:30;;;;;;;;;;;7.80;99.90;;;;;;5090119;28;19916;-41
2022/12/28 06:32:56;;;;;;;;;;;7.90;99.90;;;;;;5089393;28;19927;-41
2022/12/28 06:35:21;;;;;;;;;;;7.80;99.90;;;;;;5092448;28;19908;-38
2022/12/28 06:37:47;;;;;;;;;;;7.90;99.90;;;;;;5091237;28;19916;-39
2022/12/28 06:40:13;;;;;;;;;;;7.90;99.90;;;;;;5087973;28;19958;-40
2022/12/28 06:42:38;;;;;;;;;;;7.90;99.90;;;;;;5092633;28;19998;-41
2022/12/28 06:45:04;;;;;;;;;;;8.00;99.90;;;;;;5092388;28;20374;-40
2022/12/28 06:47:29;;;;;;;;;;;8.00;99.90;;;;;;5092077;28;19908;-40
2022/12/28 06:49:55;;;;;;;;;;;8.00;99.90;;;;;;5092791;28;19981;-41
2022/12/28 06:52:20;;;;;;;;;;;8.10;99.90;;;;;;5077174;28;19912;-40
2022/12/28 06:54:46;;;;;;;;;;;8.10;99.90;;;;;;5075102;28;20371;-40
2022/12/28 06:57:11;;;;;;;;;;;8.10;99.90;;;;;;5079911;28;19912;-40
2022/12/28 06:59:37;;;;;;;;;;;8.10;99.90;;;;;;5091641;28;19919;-41
2022/12/28 07:02:02;;;;;;;;;;;8.10;99.90;;;;;;5091556;28;20263;-40
2022/12/28 07:04:28;;;;;;;;;;;8.20;99.90;;;;;;5085217;28;19916;-40
2022/12/28 07:06:53;;;;;;;;;;;8.20;99.90;;;;;;5087477;28;19908;-40
2022/12/28 07:09:19;;;;;;;;;;;8.20;99.90;;;;;;5093302;28;20418;-40
2022/12/28 07:11:48;;;;;;;;;;;8.20;99.90;;;;;;5103002;28;20286;-39
2022/12/28 07:14:13;;;;;;;;;;;8.30;99.90;;;;;;5112877;28;20388;-40
2022/12/28 07:16:39;;;;;;;;;;;8.20;99.90;;;;;;5112123;28;19994;-40
2022/12/28 07:19:04;;;;;;;;;;;8.20;99.90;;;;;;5112853;28;20309;-41
2022/12/28 07:21:31;;;;;;;;;;;8.30;99.90;;;;;;5071890;28;20098;-39
2022/12/28 07:23:57;;;;;;;;;;;8.30;99.90;;;;;;5081494;28;19920;-41
2022/12/28 07:26:27;;;;;;;;;;;8.30;99.90;;;;;;5073700;28;19939;-42
2022/12/28 07:28:54;;;;;;;;;;;8.30;99.90;;;;;;5072038;28;20471;-40
2022/12/28 07:31:20;;;;;;;;;;;8.40;99.90;;;;;;5083055;28;19916;-40
2022/12/28 07:33:46;;;;;;;;;;;8.40;99.90;;;;;;5091541;28;19916;-39
2022/12/28 07:36:12;;;;;;;;;;;8.40;99.90;;;;;;5082150;28;19939;-38
2022/12/28 07:38:39;;;;;;;;;;;8.50;99.90;;;;;;5085582;28;20275;-38
2022/12/28 07:41:09;;;;;;;;;;;8.50;99.90;;;;;;5081534;28;19977;-39
2022/12/28 07:43:35;;;;;;;;;;;8.50;99.90;;;;;;5075123;28;19912;-41
2022/12/28 07:46:02;;;;;;;;;;;8.60;99.90;;;;;;5076079;28;19915;-42
2022/12/28 07:48:29;;;;;;;;;;;8.60;99.90;;;;;;5080667;28;19954;-40
2022/12/28 07:50:54;;;;;;;;;;;8.60;99.90;;;;;;5095275;28;20314;-40
2022/12/28 07:53:20;;;;;;;;;;;8.60;99.90;;;;;;5079119;28;19995;-40
2022/12/28 07:55:53;;;;;;;;;;;8.60;99.90;;;;;;5092338;28;19912;-39
2022/12/28 07:58:18;;;;;;;;;;;8.70;99.90;;;;;;5115687;28;19911;-41
2022/12/28 08:00:44;;;;;;;;;;;8.70;99.90;;;;;;5116356;28;19908;-41
2022/12/28 08:03:09;;;;;;;;;;;8.70;99.90;;;;;;5116388;28;20006;-38
2022/12/28 08:05:35;;;;;;;;;;;8.70;99.90;;;;;;5100167;28;19966;-41
2022/12/28 08:08:00;;;;;;;;;;;8.70;99.90;;;;;;5095641;28;20313;-39
2022/12/28 08:10:26;;;;;;;;;;;8.70;99.90;;;;;;5086796;28;20022;-39
2022/12/28 08:12:51;;;;;;;;;;;8.70;99.90;;;;;;5084331;28;19920;-39
2022/12/28 08:15:16;;;;;;;;;;;8.70;99.90;;;;;;5086770;28;19912;-40
2022/12/28 08:17:42;;;;;;;;;;;8.70;99.90;;;;;;5084283;28;19912;-40
2022/12/28 08:20:08;;;;;;;;;;;8.70;99.90;;;;;;5088010;28;19916;-40
2022/12/28 08:22:33;;;;;;;;;;;8.70;99.90;;;;;;5088737;28;20075;-40
2022/12/28 08:24:58;;;;;;;;;;;8.80;99.90;;;;;;5079867;28;20002;-40
2022/12/28 08:27:24;;;;;;;;;;;8.80;99.90;;;;;;5082942;28;20417;-38
2022/12/28 08:29:49;;;;;;;;;;;8.80;99.90;;;;;;5081304;28;19920;-37
2022/12/28 08:32:15;;;;;;;;;;;8.80;99.90;;;;;;5083049;28;19956;-41
2022/12/28 08:34:40;;;;;;;;;;;8.80;99.90;;;;;;5105850;27;19911;-44
2022/12/28 08:37:06;;;;;;;;;;;8.80;99.90;;;;;;5105949;28;20243;-40
2022/12/28 08:39:31;;;;;;;;;;;8.80;99.90;;;;;;5094716;28;19909;-40
2022/12/28 08:41:57;;;;;;;;;;;8.80;99.90;;;;;;5094641;28;19908;-39
2022/12/28 08:44:22;;;;;;;;;;;8.80;99.90;;;;;;5095269;28;20397;-40
2022/12/28 08:46:47;;;;;;;;;;;8.90;99.90;;;;;;5094950;28;19912;-40
2022/12/28 08:49:13;;;;;;;;;;;8.80;99.90;;;;;;5094580;28;19985;-39
2022/12/28 08:51:40;;;;;;;;;;;8.90;99.90;;;;;;5103873;28;19916;-38
2022/12/28 08:54:06;;;;;;;;;;;8.80;99.90;;;;;;5094460;28;19931;-39
2022/12/28 08:56:33;;;;;;;;;;;8.90;99.90;;;;;;5094868;28;20367;-40
2022/12/28 08:58:59;;;;;;;;;;;8.90;99.90;;;;;;5094443;28;20354;-40
2022/12/28 09:01:25;;;;;;;;;;;8.80;99.90;;;;;;5094178;28;19962;-40
2022/12/28 09:03:52;;;;;;;;;;;8.80;99.90;;;;;;5101481;28;19966;-39
2022/12/28 09:06:22;;;;;;;;;;;8.90;99.90;;;;;;5102205;28;19934;-40
2022/12/28 09:08:51;;;;;;;;;;;8.90;99.90;;;;;;5107609;28;20006;-42
2022/12/28 09:11:17;;;;;;;;;;;8.90;99.90;;;;;;5099569;28;19915;-41
2022/12/28 09:13:42;;;;;;;;;;;8.90;99.90;;;;;;5105741;28;19918;-38
2022/12/28 09:16:09;;;;;;;;;;;8.90;99.90;;;;;;5101421;28;19922;-40
2022/12/28 09:18:35;;;;;;;;;;;8.90;99.90;;;;;;5099847;28;20353;-42
2022/12/28 09:21:04;;;;;;;;;;;8.90;99.90;;;;;;5099402;28;20435;-40
2022/12/28 09:23:30;;;;;;;;;;;8.90;99.90;;;;;;5134272;27;19914;-38
2022/12/28 09:25:55;;;;;;;;;;;8.90;99.90;;;;;;5135360;27;19912;-39
2022/12/28 09:28:21;;;;;;;;;;;9.00;99.90;;;;;;5135151;27;19937;-39
2022/12/28 09:30:46;;;;;;;;;;;9.00;99.90;;;;;;5134120;27;19915;-39
2022/12/28 09:35:57;;;;;;;;;;;9.00;99.90;;;;;;5121138;27;19965;-39
2022/12/28 09:38:22;;;;;;;;;;;9.00;99.90;;;;;;5094363;28;19912;-40
2022/12/28 09:40:48;;;;;;;;;;;9.00;99.90;;;;;;5095191;28;20013;-38
2022/12/28 09:43:13;;;;;;;;;;;9.00;99.90;;;;;;5105255;28;19912;-41
2022/12/28 09:45:41;;;;;;;;;;;9.10;99.90;;;;;;5093572;28;20383;-40
2022/12/28 09:48:09;;;;;;;;;;;9.10;99.90;;;;;;5106156;27;20366;-40
2022/12/28 09:50:35;;;;;;;;;;;9.10;99.90;;;;;;5094328;28;19921;-40
2022/12/28 09:53:19;;;;;;;;;;;9.10;99.90;;;;;;5095757;28;19919;-39
2022/12/28 09:55:52;;;;;;;;;;;9.10;99.90;;;;;;5094415;28;20262;-41
2022/12/28 09:58:18;;;;;;;;;;;9.10;99.90;;;;;;5095695;28;19934;-39
2022/12/28 10:00:43;;;;;;;;;;;9.20;99.90;;;;;;5114535;28;19907;-40
2022/12/28 10:03:20;;;;;;;;;;;9.10;99.90;;;;;;5114252;28;19956;-38
2022/12/28 10:05:46;;;;;;;;;;;9.20;99.90;;;;;;5113012;28;19908;-39
2022/12/28 10:08:13;;;;;;;;;;;9.20;99.90;;;;;;5106159;28;19908;-39
2022/12/28 10:10:40;;;;;;;;;;;9.20;99.90;;;;;;5096468;28;20408;-40
2022/12/28 10:13:22;;;;;;;;;;;9.20;99.90;;;;;;5096981;28;19912;-39
2022/12/28 10:15:48;;;;;;;;;;;9.20;99.90;;;;;;5099032;28;19908;-40
2022/12/28 10:18:14;;;;;;;;;;;9.20;99.90;;;;;;5091850;28;19915;-39
2022/12/28 10:20:41;;;;;;;;;;;9.20;99.90;;;;;;5108714;28;20266;-39
2022/12/28 10:23:09;;;;;;;;;;;9.20;99.90;;;;;;5113381;28;19908;-39
2022/12/28 10:25:35;;;;;;;;;;;9.20;99.90;;;;;;5112914;28;19914;-39
2022/12/28 10:28:04;;;;;;;;;;;9.30;99.90;;;;;;5112045;28;19920;-41
2022/12/28 10:30:30;;;;;;;;;;;9.30;99.90;;;;;;5102526;27;19935;-39
2022/12/28 10:32:56;;;;;;;;;;;9.30;99.90;;;;;;5123157;27;19963;-39
2022/12/28 10:35:25;;;;;;;;;;;9.30;99.90;;;;;;5104819;28;19912;-41
2022/12/28 10:37:53;;;;;;;;;;;9.30;99.90;;;;;;5100200;28;19923;-39
2022/12/28 10:40:27;;;;;;;;;;;9.30;99.90;;;;;;5092553;28;19908;-40
2022/12/28 10:42:53;;;;;;;;;;;9.30;99.90;;;;;;5092964;28;19966;-39
2022/12/28 10:45:21;;;;;;;;;;;9.30;99.90;;;;;;5093095;28;20011;-43
2022/12/28 10:47:50;;;;;;;;;;;9.30;99.90;;;;;;5092168;28;20430;-39
2022/12/28 10:50:35;;;;;;;;;;;9.40;99.90;;;;;;5093838;28;20438;-38
2022/12/28 10:53:00;;;;;;;;;;;9.30;99.90;;;;;;5095924;27;19937;-39
2022/12/28 10:55:27;;;;;;;;;;;9.30;99.90;;;;;;5092242;28;19914;-39
2022/12/28 10:57:52;;;;;;;;;;;9.40;99.90;;;;;;5094150;28;20408;-38
2022/12/28 11:00:19;;;;;;;;;;;9.40;99.90;;;;;;5099545;27;20027;-39
2022/12/28 11:02:44;;;;;;;;;;;9.40;99.90;;;;;;5098090;28;19912;-40
2022/12/28 11:05:18;;;;;;;;;;;9.40;99.90;;;;;;5098993;28;20385;-39
2022/12/28 11:07:44;;;;;;;;;;;9.40;99.90;;;;;;5091702;28;20300;-39
2022/12/28 11:10:36;;;;;;;;;;;9.50;99.90;;;;;;5095218;28;19938;-41
2022/12/28 11:13:06;;;;;;;;;;;9.50;99.90;;;;;;5113928;28;19907;-40
2022/12/28 11:15:32;;;;;;;;;;;9.40;99.90;;;;;;5117371;28;19907;-40
2022/12/28 11:18:05;;;;;;;;;;;9.50;99.90;;;;;;5117922;28;20267;-41
2022/12/28 11:20:33;;;;;;;;;;;9.50;99.90;;;;;;5117968;28;20366;-42
2022/12/28 11:22:59;;;;;;;;;;;9.50;99.90;;;;;;5117384;28;19907;-39
2022/12/28 11:25:29;;;;;;;;;;;9.50;99.90;;;;;;5102355;28;19931;-39
2022/12/28 11:27:55;;;;;;;;;;;9.50;99.90;;;;;;5097424;28;19912;-39
2022/12/28 11:30:21;;;;;;;;;;;9.50;99.90;;;;;;5096787;28;20026;-39
2022/12/28 11:32:54;;;;;;;;;;;9.50;99.90;;;;;;5097030;28;19931;-41
2022/12/28 11:35:25;;;;;;;;;;;9.50;99.90;;;;;;5097301;28;19912;-39
2022/12/28 11:37:51;;;;;;;;;;;9.50;99.90;;;;;;5097120;28;20339;-39
2022/12/28 11:40:35;;;;;;;;;;;9.50;99.90;;;;;;5096828;28;19955;-41
2022/12/28 11:43:01;;;;;;;;;;;9.40;99.90;;;;;;5097299;28;19955;-38
2022/12/28 11:45:56;;;;;;;;;;;9.50;99.90;;;;;;5105241;28;19936;-40
2022/12/28 11:48:37;;;;;;;;;;;9.40;99.90;;;;;;5067867;28;19908;-41
2022/12/28 11:51:16;;;;;;;;;;;9.50;99.90;;;;;;5102618;28;19928;-40
2022/12/28 11:53:44;;;;;;;;;;;9.40;99.90;;;;;;5116043;28;19998;-41
2022/12/28 11:56:11;;;;;;;;;;;9.50;99.90;;;;;;5116578;28;19908;-41
2022/12/28 11:58:39;;;;;;;;;;;9.50;99.90;;;;;;5115717;28;19908;-39
2022/12/28 12:01:08;;;;;;;;;;;9.50;99.90;;;;;;5116495;28;19926;-41
2022/12/28 12:03:52;;;;;;;;;;;9.40;99.90;;;;;;5114775;28;19907;-39
2022/12/28 12:06:17;;;;;;;;;;;9.50;99.90;;;;;;5093336;28;19919;-40
2022/12/28 12:08:47;;;;;;;;;;;9.50;99.90;;;;;;5099888;28;20278;-40
2022/12/28 12:11:20;;;;;;;;;;;9.50;99.90;;;;;;5092538;28;20006;-40
2022/12/28 12:13:47;;;;;;;;;;;9.50;99.90;;;;;;5104486;27;19912;-39
2022/12/28 12:16:26;;;;;;;;;;;9.50;99.90;;;;;;5107942;28;19912;-39
2022/12/28 12:18:54;;;;;;;;;;;9.50;99.90;;;;;;5094880;28;19912;-40
2022/12/28 12:21:34;;;;;;;;;;;9.50;99.90;;;;;;5112950;27;20388;-39
2022/12/28 12:24:11;;;;;;;;;;;9.50;99.90;;;;;;5136876;27;19918;-39
2022/12/28 12:26:38;;;;;;;;;;;9.50;99.90;;;;;;5135808;27;20193;-38
2022/12/28 12:29:14;;;;;;;;;;;9.50;99.90;;;;;;5136397;27;20044;-40
2022/12/28 12:31:43;;;;;;;;;;;9.50;99.90;;;;;;5135363;27;19919;-41
2022/12/28 12:34:22;;;;;;;;;;;9.50;99.90;;;;;;5122220;27;19998;-42
2022/12/28 12:37:06;;;;;;;;;;;9.50;99.90;;;;;;5111589;28;19919;-39
2022/12/28 12:39:39;;;;;;;;;;;9.40;99.90;;;;;;5094419;28;19961;-40
2022/12/28 12:42:23;;;;;;;;;;;9.40;99.90;;;;;;5095203;28;19908;-40
2022/12/28 12:44:55;;;;;;;;;;;9.40;99.90;;;;;;5095207;28;19936;-40
2022/12/28 12:47:39;;;;;;;;;;;9.50;99.90;;;;;;5094494;28;19908;-40
2022/12/28 12:50:20;;;;;;;;;;;9.50;99.90;;;;;;5094901;28;19920;-42
2022/12/28 12:52:45;;;;;;;;;;;9.40;99.90;;;;;;5096361;28;19916;-38
2022/12/28 12:55:30;;;;;;;;;;;9.50;99.90;;;;;;5103902;28;19908;-41
2022/12/28 12:58:14;;;;;;;;;;;9.50;99.90;;;;;;5095331;28;20294;-41
2022/12/28 13:00:42;;;;;;;;;;;9.40;99.90;;;;;;5107668;28;19916;-39
2022/12/28 13:03:15;;;;;;;;;;;9.40;99.90;;;;;;5096479;28;19908;-39
2022/12/28 13:05:44;;;;;;;;;;;9.50;99.90;;;;;;5098372;28;20397;-42
2022/12/28 13:08:19;;;;;;;;;;;9.40;99.90;;;;;;5126639;27;19911;-40
2022/12/28 13:10:44;;;;;;;;;;;9.40;99.90;;;;;;5101022;27;20399;-38
2022/12/28 13:13:16;;;;;;;;;;;9.50;99.90;;;;;;5094797;28;19995;-41
2022/12/28 13:15:42;;;;;;;;;;;9.50;99.90;;;;;;5094003;28;19915;-41
2022/12/28 13:18:18;;;;;;;;;;;9.50;99.90;;;;;;5094630;28;19908;-41
2022/12/28 13:21:03;;;;;;;;;;;9.40;99.90;;;;;;5094671;28;19943;-40
2022/12/28 13:23:30;;;;;;;;;;;9.40;99.90;;;;;;5094296;28;19915;-41
2022/12/28 13:25:58;;;;;;;;;;;9.40;99.90;;;;;;5094454;28;19908;-42
2022/12/28 13:28:31;;;;;;;;;;;9.50;99.90;;;;;;5093631;28;19908;-41
2022/12/28 13:30:59;;;;;;;;;;;9.40;99.90;;;;;;5094137;28;19920;-41
2022/12/28 13:33:24;;;;;;;;;;;9.40;99.90;;;;;;5093469;28;19962;-40
2022/12/28 13:35:50;;;;;;;;;;;9.50;99.90;;;;;;5092909;28;19943;-39
2022/12/28 13:38:16;;;;;;;;;;;9.40;99.90;;;;;;5096404;28;19973;-42
2022/12/28 13:40:50;;;;;;;;;;;9.40;99.90;;;;;;5097724;28;19912;-40
2022/12/28 13:43:33;;;;;;;;;;;9.40;99.90;;;;;;5093270;28;19914;-40
2022/12/28 13:46:01;;;;;;;;;;;9.50;99.90;;;;;;5093859;28;19931;-38
2022/12/28 13:48:27;;;;;;;;;;;9.50;99.90;;;;;;5093699;28;20358;-40
2022/12/28 13:50:53;;;;;;;;;;;9.50;99.90;;;;;;5089754;27;19934;-41
2022/12/28 13:53:20;;;;;;;;;;;9.50;99.90;;;;;;5097382;28;19916;-41
2022/12/28 13:55:51;;;;;;;;;;;9.50;99.90;;;;;;5107027;28;19908;-40
2022/12/28 13:58:24;;;;;;;;;;;9.50;99.90;;;;;;5108379;28;19912;-41
2022/12/28 14:00:50;;;;;;;;;;;9.50;99.90;;;;;;5092289;28;19920;-43
2022/12/28 14:03:17;;;;;;;;;;;9.50;99.90;;;;;;5092130;28;19995;-42
2022/12/28 14:05:43;;;;;;;;;;;9.50;99.90;;;;;;5119885;27;20046;-40
2022/12/28 14:08:09;;;;;;;;;;;9.50;99.90;;;;;;5114673;27;20470;-41
2022/12/28 14:10:35;;;;;;;;;;;9.40;99.90;;;;;;5111722;28;20028;-41
2022/12/28 14:13:01;;;;;;;;;;;9.40;99.90;;;;;;5109405;28;19920;-40
2022/12/28 14:15:26;;;;;;;;;;;9.40;99.90;;;;;;5105226;28;19912;-42
2022/12/28 14:17:53;;;;;;;;;;;9.40;99.90;;;;;;5110837;28;19923;-41
2022/12/28 14:20:18;;;;;;;;;;;9.40;99.90;;;;;;5101275;28;19919;-40
2022/12/28 14:22:44;;;;;;;;;;;9.40;99.90;;;;;;5113469;28;19908;-40
2022/12/28 14:25:09;;;;;;;;;;;9.40;99.90;;;;;;5119299;27;20267;-41
2022/12/28 14:27:37;;;;;;;;;;;9.40;99.90;;;;;;5093357;28;19912;-41
2022/12/28 14:30:04;;;;;;;;;;;9.40;99.90;;;;;;5093385;28;19924;-41
2022/12/28 14:32:29;;;;;;;;;;;9.40;99.90;;;;;;5092075;28;19924;-41
2022/12/28 14:34:57;;;;;;;;;;;9.30;99.90;;;;;;5093325;28;20053;-41
2022/12/28 14:37:31;;;;;;;;;;;9.30;99.90;;;;;;5122308;27;19976;-42
2022/12/28 14:39:58;;;;;;;;;;;9.20;99.90;;;;;;5133138;27;19907;-39
2022/12/28 14:42:24;;;;;;;;;;;9.30;99.90;;;;;;5115037;28;19930;-40
2022/12/28 14:44:50;;;;;;;;;;;9.20;99.90;;;;;;5113116;28;20319;-39
2022/12/28 14:47:32;;;;;;;;;;;9.20;99.90;;;;;;5112456;28;20003;-39
2022/12/28 14:49:58;;;;;;;;;;;9.20;99.90;;;;;;5113040;28;19920;-41
2022/12/28 14:52:23;;;;;;;;;;;9.10;99.90;;;;;;5112484;28;19908;-40
2022/12/28 14:54:50;;;;;;;;;;;9.20;99.90;;;;;;5112441;28;19908;-40
2022/12/28 14:57:22;;;;;;;;;;;9.10;99.90;;;;;;5092821;28;19912;-40
2022/12/28 14:59:53;;;;;;;;;;;9.10;99.90;;;;;;5091650;28;19939;-40
2022/12/28 15:02:34;;;;;;;;;;;9.10;99.90;;;;;;5092966;28;19908;-40
2022/12/28 15:05:00;;;;;;;;;;;9.10;99.90;;;;;;5092603;28;20355;-43
2022/12/28 15:07:25;;;;;;;;;;;9.10;99.90;;;;;;5091898;28;19908;-40